createdAt,value
2022-08-10T00:01:51.952Z,37.50
2022-08-10T00:04:22.080Z,37.60
2022-08-10T00:06:52.062Z,37.70
2022-08-10T00:09:20.641Z,37.70
2022-08-10T00:11:49.290Z,37.70
2022-08-10T00:14:17.860Z,37.80
2022-08-10T00:16:47.577Z,37.90
2022-08-10T00:19:17.335Z,38.10
2022-08-10T00:21:47.601Z,38.10
2022-08-10T00:24:16.947Z,38.10
2022-08-10T00:27:51.829Z,38.00
2022-08-10T00:29:34.245Z,38.00
2022-08-10T00:32:04.211Z,38.00
2022-08-10T00:34:34.121Z,38.20
2022-08-10T00:37:02.810Z,38.20
2022-08-10T00:39:33.159Z,38.30
2022-08-10T00:42:07.866Z,38.30
2022-08-10T00:44:38.098Z,38.60
2022-08-10T00:47:21.294Z,38.60
2022-08-10T00:49:57.217Z,38.70
2022-08-10T00:52:27.927Z,38.60
2022-08-10T00:54:57.348Z,38.70
2022-08-10T00:57:26.516Z,38.80
2022-08-10T00:59:58.986Z,38.80
2022-08-10T01:02:31.965Z,38.90
2022-08-10T01:05:03.561Z,39.00
2022-08-10T01:07:54.902Z,39.00
2022-08-10T01:10:30.747Z,39.20
2022-08-10T01:13:06.918Z,39.20
2022-08-10T01:15:41.755Z,39.30
2022-08-10T01:22:21.797Z,39.50
2022-08-10T01:25:23.025Z,39.50
2022-08-10T01:28:00.986Z,39.60
2022-08-10T01:30:33.656Z,39.70
2022-08-10T01:33:06.916Z,39.70
2022-08-10T01:35:39.185Z,39.80
2022-08-10T01:38:12.084Z,39.90
2022-08-10T01:40:46.171Z,40.00
2022-08-10T01:43:17.544Z,40.00
2022-08-10T01:45:51.061Z,40.00
2022-08-10T01:48:29.251Z,40.10
2022-08-10T01:51:10.376Z,40.20
2022-08-10T01:53:43.349Z,40.30
2022-08-10T01:56:15.072Z,40.20
2022-08-10T01:58:45.479Z,40.30
2022-08-10T02:01:19.111Z,40.30
2022-08-10T02:04:04.405Z,40.50
2022-08-10T02:06:38.589Z,40.50
2022-08-10T02:09:09.066Z,40.60
2022-08-10T02:12:05.389Z,40.60
2022-08-10T02:14:33.029Z,40.60
2022-08-10T02:17:06.375Z,40.80
2022-08-10T02:19:37.871Z,40.80
2022-08-10T02:22:37.919Z,40.80
2022-08-10T02:24:59.491Z,40.90
2022-08-10T02:27:29.777Z,40.90
2022-08-10T02:30:00.334Z,41.10
2022-08-10T02:32:37.884Z,41.30
2022-08-10T02:35:19.392Z,41.20
2022-08-10T02:37:54.067Z,41.30
2022-08-10T02:45:00.994Z,41.20
2022-08-10T02:45:26.673Z,41.30
2022-08-10T02:46:20.796Z,41.50
2022-08-10T02:48:57.570Z,41.30
2022-08-10T02:52:08.149Z,41.50
2022-08-10T02:54:23.238Z,41.60
2022-08-10T02:56:57.005Z,41.60
2022-08-10T02:59:39.667Z,41.70
2022-08-10T03:02:13.521Z,41.70
2022-08-10T03:04:56.023Z,41.80
2022-08-10T03:07:43.989Z,41.90
2022-08-10T03:10:17.630Z,41.90
2022-08-10T03:12:49.788Z,42.00
2022-08-10T03:15:21.033Z,42.00
2022-08-10T03:17:57.944Z,42.10
2022-08-10T03:20:37.729Z,42.20
2022-08-10T03:23:11.856Z,42.90
2022-08-10T03:25:40.706Z,42.20
2022-08-10T03:28:09.600Z,42.30
2022-08-10T03:30:38.594Z,42.40
2022-08-10T03:33:09.016Z,42.40
2022-08-10T03:35:39.216Z,42.60
2022-08-10T03:38:07.751Z,42.60
2022-08-10T03:40:46.354Z,43.20
2022-08-10T03:43:18.970Z,42.60
2022-08-10T03:45:55.991Z,42.80
2022-08-10T03:48:32.352Z,42.80
2022-08-10T03:51:16.904Z,42.80
2022-08-10T03:54:05.627Z,42.90
2022-08-10T03:56:39.491Z,43.00
2022-08-10T03:59:10.116Z,43.20
2022-08-10T04:02:47.060Z,43.30
2022-08-10T04:04:28.035Z,43.30
2022-08-10T04:06:59.335Z,43.30
2022-08-10T04:09:55.668Z,43.50
2022-08-10T04:12:18.263Z,43.40
2022-08-10T04:14:49.349Z,43.40
2022-08-10T04:17:56.991Z,43.50
2022-08-10T04:20:13.321Z,43.40
2022-08-10T04:22:44.510Z,43.50
2022-08-10T04:25:16.171Z,43.60
2022-08-10T04:27:45.439Z,43.60
2022-08-10T04:30:13.969Z,43.50
2022-08-10T04:32:44.584Z,43.60
2022-08-10T04:35:13.484Z,43.60
2022-08-10T04:37:47.619Z,43.80
2022-08-10T04:40:25.448Z,43.80
2022-08-10T04:43:05.929Z,43.90
2022-08-10T04:45:49.043Z,43.90
2022-08-10T04:48:39.977Z,44.00
2022-08-10T04:51:10.703Z,44.10
2022-08-10T04:54:05.770Z,44.10
2022-08-10T04:56:34.135Z,44.20
2022-08-10T04:59:02.742Z,44.40
2022-08-10T05:02:27.103Z,44.50
2022-08-10T05:04:35.547Z,44.40
2022-08-10T05:07:09.501Z,44.50
2022-08-10T05:10:04.894Z,44.50
2022-08-10T05:12:28.324Z,44.60
2022-08-10T05:14:56.869Z,44.70
2022-08-10T05:17:25.205Z,44.70
2022-08-10T05:20:04.987Z,44.70
2022-08-10T05:22:35.675Z,44.80
2022-08-10T05:25:08.794Z,45.00
2022-08-10T05:27:37.075Z,45.90
2022-08-10T05:30:07.527Z,45.20
2022-08-10T05:32:56.058Z,45.20
2022-08-10T05:35:24.694Z,45.30
2022-08-10T05:38:10.301Z,45.20
2022-08-10T05:40:46.710Z,45.30
2022-08-10T05:43:18.211Z,45.40
2022-08-10T05:46:17.005Z,45.40
2022-08-10T05:48:41.800Z,45.40
2022-08-10T05:51:25.813Z,45.40
2022-08-10T05:54:00.957Z,45.40
2022-08-10T05:56:54.979Z,45.40
2022-08-10T06:00:11.252Z,45.40
2022-08-10T06:02:31.503Z,45.50
2022-08-10T06:05:08.077Z,45.50
2022-08-10T06:07:40.530Z,45.70
2022-08-10T06:10:13.280Z,45.80
2022-08-10T06:12:54.982Z,45.70
2022-08-10T06:15:50.867Z,45.60
2022-08-10T06:18:14.421Z,45.60
2022-08-10T06:20:44.063Z,45.40
2022-08-10T06:23:13.781Z,45.40
2022-08-10T06:26:09.955Z,45.40
2022-08-10T06:28:37.806Z,45.30
2022-08-10T06:31:07.693Z,45.20
2022-08-10T06:33:39.808Z,45.10
2022-08-10T06:36:09.920Z,45.00
2022-08-10T06:38:40.642Z,45.10
2022-08-10T06:41:19.452Z,45.10
2022-08-10T06:44:02.863Z,45.10
2022-08-10T06:46:35.982Z,45.20
2022-08-10T06:49:08.369Z,45.10
2022-08-10T06:51:39.925Z,45.00
2022-08-10T06:54:12.060Z,45.00
2022-08-10T06:57:01.720Z,44.90
2022-08-10T06:59:39.442Z,45.00
2022-08-10T07:02:10.805Z,45.00
2022-08-10T07:04:45.735Z,44.90
2022-08-10T07:07:19.769Z,45.00
2022-08-10T07:09:48.985Z,44.90
2022-08-10T07:12:18.893Z,44.90
2022-08-10T07:14:51.292Z,44.80
2022-08-10T07:17:23.132Z,44.80
2022-08-10T07:19:56.477Z,44.60
2022-08-10T07:23:01.821Z,44.60
2022-08-10T07:25:19.559Z,44.30
2022-08-10T07:27:59.767Z,44.00
2022-08-10T07:30:33.250Z,44.00
2022-08-10T07:33:04.001Z,44.00
2022-08-10T07:35:42.236Z,43.70
2022-08-10T07:38:15.465Z,43.40
2022-08-10T07:40:45.063Z,43.30
2022-08-10T07:43:15.661Z,43.20
2022-08-10T07:45:47.570Z,43.10
2022-08-10T07:48:18.624Z,43.10
2022-08-10T07:50:48.217Z,43.00
2022-08-10T07:53:24.638Z,42.90
2022-08-10T07:56:05.641Z,43.50
2022-08-10T07:58:47.468Z,42.70
2022-08-10T08:01:28.093Z,42.50
2022-08-10T08:04:11.490Z,42.40
2022-08-10T08:06:42.144Z,42.30
2022-08-10T08:09:11.169Z,42.30
2022-08-10T08:11:40.837Z,42.20
2022-08-10T08:14:10.845Z,42.20
2022-08-10T08:16:45.360Z,42.30
2022-08-10T08:19:38.048Z,42.30
2022-08-10T08:24:08.544Z,42.60
2022-08-10T08:24:56.042Z,42.60
2022-08-10T08:27:25.635Z,42.50
2022-08-10T08:29:54.336Z,42.50
2022-08-10T08:32:26.833Z,42.40
2022-08-10T08:35:00.218Z,42.40
2022-08-10T08:38:33.237Z,42.50
2022-08-10T08:40:25.364Z,42.50
2022-08-10T08:43:26.296Z,42.30
2022-08-10T08:46:14.170Z,42.10
2022-08-10T08:49:12.691Z,42.00
2022-08-10T08:52:18.076Z,42.10
2022-08-10T08:54:58.036Z,42.00
2022-08-10T08:57:50.720Z,41.70
2022-08-10T09:00:25.052Z,41.70
2022-08-10T09:03:29.260Z,41.70
2022-08-10T09:06:09.227Z,41.50
2022-08-10T09:09:18.443Z,41.30
2022-08-10T09:12:00.445Z,41.10
2022-08-10T09:14:39.973Z,41.20
2022-08-10T09:17:17.586Z,41.00
2022-08-10T09:19:50.692Z,41.00
2022-08-10T09:22:28.750Z,41.20
2022-08-10T09:25:03.305Z,40.80
2022-08-10T09:27:35.843Z,40.90
2022-08-10T09:30:08.059Z,40.80
2022-08-10T09:36:17.198Z,40.50
2022-08-10T09:36:20.495Z,40.50
2022-08-10T09:38:49.888Z,40.40
2022-08-10T09:41:28.731Z,40.20
2022-08-10T09:44:07.401Z,40.10
2022-08-10T09:46:52.575Z,39.70
2022-08-10T09:49:54.064Z,39.70
2022-08-10T09:52:29.573Z,39.50
2022-08-10T09:55:11.734Z,39.60
2022-08-10T09:57:55.011Z,39.30
2022-08-10T10:00:31.975Z,39.00
2022-08-10T10:03:10.077Z,38.80
2022-08-10T10:05:50.237Z,38.10
2022-08-10T10:08:28.123Z,38.30
2022-08-10T10:11:11.273Z,38.60
2022-08-10T10:14:01.934Z,37.40
2022-08-10T10:17:03.529Z,38.20
2022-08-10T10:19:45.182Z,37.90
2022-08-10T10:22:26.817Z,37.70
2022-08-10T10:25:19.479Z,37.50
2022-08-10T10:28:04.339Z,37.50
2022-08-10T10:30:41.478Z,37.10
2022-08-10T10:33:14.879Z,37.30
2022-08-10T10:35:50.048Z,37.20
2022-08-10T10:38:19.974Z,37.00
2022-08-10T10:40:56.954Z,37.20
2022-08-10T10:43:43.149Z,36.90
2022-08-10T10:46:26.209Z,36.90
2022-08-10T10:49:04.701Z,36.40
2022-08-10T10:51:39.886Z,36.20
2022-08-10T10:54:13.079Z,35.10
2022-08-10T10:56:57.954Z,35.90
2022-08-10T10:59:55.620Z,35.40
2022-08-10T11:02:41.881Z,35.40
2022-08-10T11:05:19.873Z,35.00
2022-08-10T11:07:55.852Z,34.90
2022-08-10T11:10:33.239Z,35.00
2022-08-10T11:14:25.579Z,35.30
2022-08-10T11:16:17.272Z,35.10
2022-08-10T11:18:59.053Z,35.10
2022-08-10T11:21:42.221Z,35.10
2022-08-10T11:24:47.077Z,35.10
2022-08-10T11:27:21.999Z,34.90
2022-08-10T11:29:59.605Z,34.50
2022-08-10T11:32:37.469Z,34.60
2022-08-10T11:35:14.039Z,34.60
2022-08-10T11:38:32.668Z,34.30
2022-08-10T11:40:46.757Z,34.20
2022-08-10T11:43:21.921Z,33.90
2022-08-10T11:45:56.537Z,33.80
2022-08-10T11:48:54.903Z,33.60
2022-08-10T11:51:29.034Z,33.90
2022-08-10T11:54:04.949Z,33.90
2022-08-10T11:56:40.763Z,33.90
2022-08-10T11:59:26.937Z,34.00
2022-08-10T12:01:57.262Z,33.90
2022-08-10T12:04:30.611Z,34.10
2022-08-10T12:07:00.256Z,33.40
2022-08-10T12:10:07.273Z,33.80
2022-08-10T12:12:19.478Z,33.80
2022-08-10T12:14:54.860Z,33.60
2022-08-10T12:17:29.328Z,33.20
2022-08-10T12:20:06.326Z,33.40
2022-08-10T12:22:43.651Z,33.20
2022-08-10T12:25:54.746Z,32.90
2022-08-10T12:28:11.212Z,32.50
2022-08-10T12:30:46.870Z,32.50
2022-08-10T12:33:22.249Z,32.30
2022-08-10T12:36:17.903Z,31.70
2022-08-10T12:38:53.805Z,31.70
2022-08-10T12:41:44.736Z,31.50
2022-08-10T12:44:19.611Z,31.50
2022-08-10T12:46:56.476Z,31.30
2022-08-10T12:49:35.325Z,30.50
2022-08-10T12:52:13.015Z,30.50
2022-08-10T12:54:43.433Z,30.40
2022-08-10T12:57:14.090Z,30.50
2022-08-10T12:59:45.543Z,30.50
2022-08-10T13:02:34.428Z,30.20
2022-08-10T13:05:06.865Z,29.90
2022-08-10T13:08:03.723Z,29.70
2022-08-10T13:10:27.372Z,29.60
2022-08-10T13:12:59.857Z,29.60
2022-08-10T13:15:48.615Z,29.70
2022-08-10T13:18:26.481Z,29.50
2022-08-10T13:20:58.484Z,29.60
2022-08-10T13:23:31.557Z,29.60
2022-08-10T13:26:02.205Z,29.40
2022-08-10T13:28:43.280Z,29.10
2022-08-10T13:31:17.982Z,28.60
2022-08-10T13:34:38.904Z,28.80
2022-08-10T13:36:41.379Z,28.70
2022-08-10T13:39:13.725Z,28.70
2022-08-10T13:41:44.822Z,28.70
2022-08-10T13:44:16.631Z,28.60
2022-08-10T13:46:51.375Z,28.40
2022-08-10T13:49:22.125Z,28.40
2022-08-10T13:51:56.773Z,28.50
2022-08-10T13:54:32.283Z,28.40
2022-08-10T13:57:01.811Z,28.10
2022-08-10T14:00:35.450Z,28.10
2022-08-10T14:02:28.414Z,27.70
2022-08-10T14:04:59.322Z,27.90
2022-08-10T14:07:29.090Z,27.90
2022-08-10T14:10:07.687Z,27.80
2022-08-10T14:12:38.921Z,28.20
2022-08-10T14:15:09.856Z,27.60
2022-08-10T14:17:44.891Z,27.30
2022-08-10T14:20:20.893Z,26.80
2022-08-10T14:22:50.420Z,27.00
2022-08-10T14:25:20.050Z,27.20
2022-08-10T14:28:03.546Z,27.40
2022-08-10T14:30:34.656Z,27.40
2022-08-10T14:33:05.249Z,27.30
2022-08-10T14:36:23.399Z,27.20
2022-08-10T14:38:31.001Z,27.10
2022-08-10T14:41:02.925Z,27.20
2022-08-10T14:43:39.631Z,27.40
2022-08-10T14:46:11.078Z,26.90
2022-08-10T14:48:42.225Z,26.90
2022-08-10T14:51:13.256Z,27.00
2022-08-10T14:53:45.902Z,27.10
2022-08-10T14:56:19.956Z,26.90
2022-08-10T14:59:05.784Z,26.90
2022-08-10T15:02:01.035Z,27.10
2022-08-10T15:04:28.882Z,27.40
2022-08-10T15:07:01.278Z,27.40
2022-08-10T15:09:37.329Z,27.50
2022-08-10T15:12:27.579Z,27.50
2022-08-10T15:15:00.834Z,27.20
2022-08-10T15:17:34.876Z,27.50
2022-08-10T15:20:15.251Z,27.50
2022-08-10T15:22:50.138Z,27.40
2022-08-10T15:25:24.751Z,27.50
2022-08-10T15:28:05.723Z,27.40
2022-08-10T15:30:40.983Z,27.40
2022-08-10T15:34:02.508Z,27.50
2022-08-10T15:36:58.794Z,27.70
2022-08-10T15:40:20.511Z,27.20
2022-08-10T15:42:35.088Z,27.40
2022-08-10T15:45:06.243Z,27.50
2022-08-10T15:47:45.584Z,27.30
2022-08-10T15:50:21.429Z,27.20
2022-08-10T15:53:02.595Z,27.30
2022-08-10T15:55:44.404Z,27.40
2022-08-10T15:58:30.161Z,27.60
2022-08-10T16:02:14.959Z,27.60
2022-08-10T16:04:08.368Z,27.60
2022-08-10T16:06:40.862Z,27.40
2022-08-10T16:10:23.039Z,27.60
2022-08-10T16:12:09.512Z,27.70
2022-08-10T16:14:38.769Z,28.40
2022-08-10T16:17:13.268Z,27.80
2022-08-10T16:19:50.099Z,27.80
2022-08-10T16:22:35.461Z,27.70
2022-08-10T16:25:15.387Z,28.10
2022-08-10T16:27:45.870Z,27.60
2022-08-10T16:30:15.757Z,28.20
2022-08-10T16:32:49.896Z,27.70
2022-08-10T16:35:20.572Z,27.60
2022-08-10T16:37:57.476Z,27.70
2022-08-10T16:40:29.604Z,27.70
2022-08-10T16:42:59.758Z,27.50
2022-08-10T16:45:32.718Z,27.50
2022-08-10T16:48:05.642Z,27.60
2022-08-10T16:50:38.701Z,27.80
2022-08-10T16:53:09.083Z,27.80
2022-08-10T16:55:49.759Z,27.80
2022-08-10T16:58:22.292Z,27.80
2022-08-10T17:00:52.721Z,27.80
2022-08-10T17:04:07.087Z,27.90
2022-08-10T17:06:22.673Z,27.70
2022-08-10T17:08:55.460Z,27.90
2022-08-10T17:11:28.446Z,28.20
2022-08-10T17:13:58.026Z,27.70
2022-08-10T17:16:28.579Z,27.80
2022-08-10T17:18:59.053Z,28.20
2022-08-10T17:21:32.139Z,27.90
2022-08-10T17:24:05.241Z,28.00
2022-08-10T17:26:38.407Z,28.10
2022-08-10T17:29:53.090Z,28.10
2022-08-10T17:32:03.135Z,28.10
2022-08-10T17:34:37.519Z,28.10
2022-08-10T17:37:09.443Z,27.90
2022-08-10T17:39:42.213Z,28.20
2022-08-10T17:42:12.294Z,28.20
2022-08-10T17:44:42.190Z,28.00
2022-08-10T17:47:12.241Z,28.10
2022-08-10T17:49:43.906Z,28.10
2022-08-10T17:52:14.991Z,28.00
2022-08-10T17:54:45.798Z,27.90
2022-08-10T17:57:19.059Z,28.00
2022-08-10T17:59:49.398Z,28.20
2022-08-10T18:02:22.928Z,28.40
2022-08-10T18:04:55.201Z,28.20
2022-08-10T18:07:32.747Z,28.20
2022-08-10T18:10:02.996Z,27.80
2022-08-10T18:12:38.201Z,28.00
2022-08-10T18:15:13.402Z,27.80
2022-08-10T18:17:46.228Z,27.80
2022-08-10T18:20:20.265Z,28.10
2022-08-10T18:22:59.243Z,28.30
2022-08-10T18:25:33.202Z,28.10
2022-08-10T18:28:04.980Z,28.30
2022-08-10T18:34:13.592Z,28.20
2022-08-10T18:36:45.556Z,28.50
2022-08-10T18:39:17.011Z,28.40
2022-08-10T18:42:04.564Z,28.40
2022-08-10T18:44:39.508Z,28.50
2022-08-10T18:47:13.764Z,28.70
2022-08-10T18:49:59.110Z,28.90
2022-08-10T18:52:31.984Z,28.70
2022-08-10T18:55:23.217Z,28.70
2022-08-10T18:58:11.057Z,29.00
2022-08-10T19:00:57.216Z,29.10
2022-08-10T19:03:53.949Z,29.00
2022-08-10T19:06:43.146Z,29.00
2022-08-10T19:09:41.615Z,29.30
2022-08-10T19:12:32.669Z,29.30
2022-08-10T19:15:10.331Z,29.50
2022-08-10T19:18:01.248Z,29.70
2022-08-10T19:20:37.169Z,29.50
2022-08-10T19:23:19.145Z,29.60
2022-08-10T19:26:42.217Z,29.80
2022-08-10T19:28:55.700Z,29.80
2022-08-10T19:31:43.964Z,30.00
2022-08-10T19:34:25.310Z,29.80
2022-08-10T19:37:02.182Z,30.00
2022-08-10T19:39:51.026Z,30.00
2022-08-10T19:42:31.690Z,30.30
2022-08-10T19:45:07.477Z,30.30
2022-08-10T19:47:40.964Z,30.30
2022-08-10T19:50:14.961Z,30.40
2022-08-10T19:52:51.071Z,30.50
2022-08-10T19:55:27.333Z,30.60
2022-08-10T19:58:06.503Z,30.60
2022-08-10T20:00:40.169Z,30.70
2022-08-10T20:03:16.868Z,30.60
2022-08-10T20:06:12.989Z,30.70
2022-08-10T20:08:51.683Z,30.90
2022-08-10T20:11:45.560Z,31.00
2022-08-10T20:14:22.958Z,30.90
2022-08-10T20:16:55.888Z,31.30
2022-08-10T20:19:53.005Z,31.30
2022-08-10T20:22:28.997Z,31.30
2022-08-10T20:25:02.903Z,31.30
2022-08-10T20:28:00.537Z,31.50
2022-08-10T20:30:31.047Z,31.60
2022-08-10T20:33:05.705Z,31.70
2022-08-10T20:35:48.323Z,31.70
2022-08-10T20:38:27.140Z,31.80
2022-08-10T20:41:04.471Z,31.80
2022-08-10T20:43:39.871Z,31.90
2022-08-10T20:46:18.607Z,32.00
2022-08-10T20:48:56.696Z,32.10
2022-08-10T20:51:57.910Z,32.20
2022-08-10T20:54:21.843Z,32.10
2022-08-10T20:58:04.568Z,32.40
2022-08-10T21:00:10.918Z,32.50
2022-08-10T21:02:58.524Z,32.50
2022-08-10T21:05:49.804Z,32.70
2022-08-10T21:08:37.139Z,32.60
2022-08-10T21:11:12.675Z,33.40
2022-08-10T21:13:58.509Z,32.80
2022-08-10T21:16:47.520Z,32.80
2022-08-10T21:20:12.070Z,33.00
2022-08-10T21:22:43.078Z,32.90
2022-08-10T21:25:17.617Z,32.80
2022-08-10T21:28:13.483Z,33.20
2022-08-10T21:30:53.872Z,33.60
2022-08-10T21:33:34.474Z,33.60
2022-08-10T21:36:12.986Z,33.50
2022-08-10T21:38:51.777Z,33.50
2022-08-10T21:41:58.209Z,33.80
2022-08-10T21:45:04.198Z,33.80
2022-08-10T21:48:16.676Z,33.60
2022-08-10T21:51:10.311Z,33.60
2022-08-10T21:54:11.844Z,33.70
2022-08-10T21:57:08.176Z,33.70
2022-08-10T22:00:11.237Z,34.10
2022-08-10T22:02:59.882Z,34.40
2022-08-10T22:05:49.180Z,34.20
2022-08-10T22:08:40.669Z,34.50
2022-08-10T22:11:37.753Z,34.40
2022-08-10T22:14:25.808Z,34.70
2022-08-10T22:18:01.185Z,34.60
2022-08-10T22:20:27.125Z,34.70
2022-08-10T22:23:29.939Z,34.70
2022-08-10T22:26:27.530Z,34.90
2022-08-10T22:29:19.229Z,34.90
2022-08-10T22:32:18.303Z,35.70
2022-08-10T22:35:33.056Z,35.10
2022-08-10T22:38:34.922Z,35.40
2022-08-10T22:41:27.717Z,35.10
2022-08-10T22:44:20.854Z,35.00
2022-08-10T22:47:08.248Z,35.30
2022-08-10T22:49:35.986Z,35.20
2022-08-10T22:52:09.004Z,35.20
2022-08-10T22:55:07.094Z,35.40
2022-08-10T22:57:49.389Z,35.50
2022-08-10T23:00:28.690Z,35.40
2022-08-10T23:03:11.656Z,35.40
2022-08-10T23:05:43.736Z,35.60
2022-08-10T23:08:30.316Z,35.80
2022-08-10T23:11:04.208Z,35.80
2022-08-10T23:13:36.943Z,35.90
2022-08-10T23:16:34.016Z,35.90
2022-08-10T23:19:11.537Z,36.30
2022-08-10T23:22:04.774Z,36.00
2022-08-10T23:24:37.217Z,36.20
2022-08-10T23:27:12.324Z,36.20
2022-08-10T23:30:03.820Z,36.30
2022-08-10T23:32:35.817Z,36.20
2022-08-10T23:36:32.234Z,36.20
2022-08-10T23:38:01.685Z,36.60
2022-08-10T23:40:30.287Z,36.30
2022-08-10T23:43:00.538Z,36.40
2022-08-10T23:45:52.570Z,36.50
2022-08-10T23:48:24.347Z,36.60
2022-08-10T23:50:59.505Z,36.70
2022-08-10T23:53:30.555Z,36.70
2022-08-10T23:56:07.256Z,36.80
2022-08-10T23:58:43.217Z,37.00
